sensor_id;sensor_type;location;lat;lon;timestamp;temperature;humidity
46331;DHT22;32049;52.346;4.870;2022-12-08T00:02:46;5.80;99.90
46331;DHT22;32049;52.346;4.870;2022-12-08T00:08:16;5.80;99.90
46331;DHT22;32049;52.346;4.870;2022-12-08T00:11:23;5.80;99.90
46331;DHT22;32049;52.346;4.870;2022-12-08T00:14:15;5.90;99.90
46331;DHT22;32049;52.346;4.870;2022-12-08T00:17:04;5.70;99.90
46331;DHT22;32049;52.346;4.870;2022-12-08T00:19:52;5.70;99.90
46331;DHT22;32049;52.346;4.870;2022-12-08T00:23:02;5.70;99.90
46331;DHT22;32049;52.346;4.870;2022-12-08T00:26:11;5.80;99.90
46331;DHT22;32049;52.346;4.870;2022-12-08T00:29:54;5.80;99.90
46331;DHT22;32049;52.346;4.870;2022-12-08T00:32:41;5.80;99.90
46331;DHT22;32049;52.346;4.870;2022-12-08T00:35:29;5.80;99.90
46331;DHT22;32049;52.346;4.870;2022-12-08T00:38:16;5.80;99.90
46331;DHT22;32049;52.346;4.870;2022-12-08T00:41:14;5.80;99.90
46331;DHT22;32049;52.346;4.870;2022-12-08T00:44:01;5.80;99.90
46331;DHT22;32049;52.346;4.870;2022-12-08T00:58:53;5.80;99.90
46331;DHT22;32049;52.346;4.870;2022-12-08T01:01:42;5.70;99.90
46331;DHT22;32049;52.346;4.870;2022-12-08T01:04:30;5.50;99.90
46331;DHT22;32049;52.346;4.870;2022-12-08T01:07:17;5.70;99.90
46331;DHT22;32049;52.346;4.870;2022-12-08T01:10:05;5.70;99.90
46331;DHT22;32049;52.346;4.870;2022-12-08T01:12:53;5.70;99.90
46331;DHT22;32049;52.346;4.870;2022-12-08T01:33:58;5.70;99.90
46331;DHT22;32049;52.346;4.870;2022-12-08T01:36:46;5.70;99.90
46331;DHT22;32049;52.346;4.870;2022-12-08T02:13:09;5.90;99.90
46331;DHT22;32049;52.346;4.870;2022-12-08T02:16:01;5.90;99.90
46331;DHT22;32049;52.346;4.870;2022-12-08T02:22:25;5.80;99.90
46331;DHT22;32049;52.346;4.870;2022-12-08T02:46:23;5.50;99.90
46331;DHT22;32049;52.346;4.870;2022-12-08T02:49:19;5.70;99.90
46331;DHT22;32049;52.346;4.870;2022-12-08T02:58:39;5.60;99.90
46331;DHT22;32049;52.346;4.870;2022-12-08T03:08:48;5.70;99.90
46331;DHT22;32049;52.346;4.870;2022-12-08T03:11:57;5.40;99.90
46331;DHT22;32049;52.346;4.870;2022-12-08T03:14:55;5.50;99.90
46331;DHT22;32049;52.346;4.870;2022-12-08T03:17:57;5.30;99.90
46331;DHT22;32049;52.346;4.870;2022-12-08T03:21:12;5.40;99.90
46331;DHT22;32049;52.346;4.870;2022-12-08T03:24:12;5.50;99.90
46331;DHT22;32049;52.346;4.870;2022-12-08T03:27:22;5.60;99.90
46331;DHT22;32049;52.346;4.870;2022-12-08T03:30:26;5.50;99.90
46331;DHT22;32049;52.346;4.870;2022-12-08T03:33:24;5.50;99.90
46331;DHT22;32049;52.346;4.870;2022-12-08T03:36:34;5.40;99.90
46331;DHT22;32049;52.346;4.870;2022-12-08T03:39:57;5.50;99.90
46331;DHT22;32049;52.346;4.870;2022-12-08T03:43:31;5.40;99.90
46331;DHT22;32049;52.346;4.870;2022-12-08T03:47:05;5.50;99.90
46331;DHT22;32049;52.346;4.870;2022-12-08T03:50:16;5.50;99.90
46331;DHT22;32049;52.346;4.870;2022-12-08T03:53:36;5.50;99.90
46331;DHT22;32049;52.346;4.870;2022-12-08T03:56:41;5.60;99.90
46331;DHT22;32049;52.346;4.870;2022-12-08T03:59:33;5.60;99.90
46331;DHT22;32049;52.346;4.870;2022-12-08T04:02:42;5.60;99.90
46331;DHT22;32049;52.346;4.870;2022-12-08T04:05:44;5.60;99.90
46331;DHT22;32049;52.346;4.870;2022-12-08T04:09:01;5.50;99.90
46331;DHT22;32049;52.346;4.870;2022-12-08T04:12:26;5.30;99.90
46331;DHT22;32049;52.346;4.870;2022-12-08T04:19:23;5.40;99.90
46331;DHT22;32049;52.346;4.870;2022-12-08T04:23:12;5.20;99.90
46331;DHT22;32049;52.346;4.870;2022-12-08T04:26:21;5.20;99.90
46331;DHT22;32049;52.346;4.870;2022-12-08T04:29:25;5.30;99.90
46331;DHT22;32049;52.346;4.870;2022-12-08T04:32:24;5.20;99.90
46331;DHT22;32049;52.346;4.870;2022-12-08T04:35:26;5.30;99.90
46331;DHT22;32049;52.346;4.870;2022-12-08T04:38:17;5.20;99.90
46331;DHT22;32049;52.346;4.870;2022-12-08T04:41:07;5.10;99.90
46331;DHT22;32049;52.346;4.870;2022-12-08T04:44:00;4.90;99.90
46331;DHT22;32049;52.346;4.870;2022-12-08T04:46:52;4.90;99.90
46331;DHT22;32049;52.346;4.870;2022-12-08T04:49:55;4.90;99.90
46331;DHT22;32049;52.346;4.870;2022-12-08T04:52:52;5.00;99.90
46331;DHT22;32049;52.346;4.870;2022-12-08T04:56:09;5.10;99.90
46331;DHT22;32049;52.346;4.870;2022-12-08T04:59:14;4.90;99.90
46331;DHT22;32049;52.346;4.870;2022-12-08T05:02:25;5.00;99.90
46331;DHT22;32049;52.346;4.870;2022-12-08T05:05:16;5.10;99.90
46331;DHT22;32049;52.346;4.870;2022-12-08T05:12:04;5.20;99.90
46331;DHT22;32049;52.346;4.870;2022-12-08T05:15:09;5.30;99.90
46331;DHT22;32049;52.346;4.870;2022-12-08T05:18:04;5.40;99.90
46331;DHT22;32049;52.346;4.870;2022-12-08T05:21:06;5.30;99.90
46331;DHT22;32049;52.346;4.870;2022-12-08T05:24:35;5.30;99.90
46331;DHT22;32049;52.346;4.870;2022-12-08T05:28:07;5.30;99.90
46331;DHT22;32049;52.346;4.870;2022-12-08T05:31:33;5.20;99.90
46331;DHT22;32049;52.346;4.870;2022-12-08T05:34:36;5.20;99.90
46331;DHT22;32049;52.346;4.870;2022-12-08T05:37:47;5.20;99.90
46331;DHT22;32049;52.346;4.870;2022-12-08T05:40:40;5.20;99.90
46331;DHT22;32049;52.346;4.870;2022-12-08T05:44:34;5.10;99.90
46331;DHT22;32049;52.346;4.870;2022-12-08T05:47:49;5.00;99.90
46331;DHT22;32049;52.346;4.870;2022-12-08T05:50:49;5.20;99.90
46331;DHT22;32049;52.346;4.870;2022-12-08T06:06:46;5.30;99.90
46331;DHT22;32049;52.346;4.870;2022-12-08T06:10:02;5.20;99.90
46331;DHT22;32049;52.346;4.870;2022-12-08T06:13:20;5.20;99.90
46331;DHT22;32049;52.346;4.870;2022-12-08T06:16:12;5.20;99.90
46331;DHT22;32049;52.346;4.870;2022-12-08T06:18:59;5.30;99.90
46331;DHT22;32049;52.346;4.870;2022-12-08T06:24:50;5.00;99.90
46331;DHT22;32049;52.346;4.870;2022-12-08T06:27:37;5.00;99.90
46331;DHT22;32049;52.346;4.870;2022-12-08T06:30:25;4.90;99.90
46331;DHT22;32049;52.346;4.870;2022-12-08T06:33:17;4.90;99.90
46331;DHT22;32049;52.346;4.870;2022-12-08T06:36:27;4.90;99.90
46331;DHT22;32049;52.346;4.870;2022-12-08T06:39:14;5.00;99.90
46331;DHT22;32049;52.346;4.870;2022-12-08T06:43:24;5.00;99.90
46331;DHT22;32049;52.346;4.870;2022-12-08T06:46:36;4.80;99.90
46331;DHT22;32049;52.346;4.870;2022-12-08T06:49:45;4.80;99.90
46331;DHT22;32049;52.346;4.870;2022-12-08T06:52:45;4.80;99.90
46331;DHT22;32049;52.346;4.870;2022-12-08T06:56:32;4.80;99.90
46331;DHT22;32049;52.346;4.870;2022-12-08T06:59:47;4.70;99.90
46331;DHT22;32049;52.346;4.870;2022-12-08T07:02:54;4.80;99.90
46331;DHT22;32049;52.346;4.870;2022-12-08T07:05:56;4.90;99.90
46331;DHT22;32049;52.346;4.870;2022-12-08T07:09:03;4.80;99.90
46331;DHT22;32049;52.346;4.870;2022-12-08T07:15:55;4.80;99.90
46331;DHT22;32049;52.346;4.870;2022-12-08T07:19:11;4.90;99.90
46331;DHT22;32049;52.346;4.870;2022-12-08T07:22:23;4.80;99.90
46331;DHT22;32049;52.346;4.870;2022-12-08T07:26:10;4.90;99.90
46331;DHT22;32049;52.346;4.870;2022-12-08T07:29:50;4.80;99.90
46331;DHT22;32049;52.346;4.870;2022-12-08T07:40:23;4.90;99.90
46331;DHT22;32049;52.346;4.870;2022-12-08T07:44:09;4.70;99.90
46331;DHT22;32049;52.346;4.870;2022-12-08T07:47:42;4.70;99.90
46331;DHT22;32049;52.346;4.870;2022-12-08T07:51:23;4.70;99.90
46331;DHT22;32049;52.346;4.870;2022-12-08T07:54:50;5.00;99.90
46331;DHT22;32049;52.346;4.870;2022-12-08T07:58:25;5.00;99.90
46331;DHT22;32049;52.346;4.870;2022-12-08T08:01:42;5.00;99.90
46331;DHT22;32049;52.346;4.870;2022-12-08T08:04:54;5.00;99.90
46331;DHT22;32049;52.346;4.870;2022-12-08T08:08:17;4.90;99.90
46331;DHT22;32049;52.346;4.870;2022-12-08T08:12:12;5.00;99.90
46331;DHT22;32049;52.346;4.870;2022-12-08T08:23:16;4.90;99.90
46331;DHT22;32049;52.346;4.870;2022-12-08T08:26:13;5.00;99.90
46331;DHT22;32049;52.346;4.870;2022-12-08T08:29:27;4.80;99.90
46331;DHT22;32049;52.346;4.870;2022-12-08T08:36:34;4.80;99.90
46331;DHT22;32049;52.346;4.870;2022-12-08T08:48:01;4.90;99.90
46331;DHT22;32049;52.346;4.870;2022-12-08T08:50:48;4.90;99.90
46331;DHT22;32049;52.346;4.870;2022-12-08T08:53:35;5.00;99.90
46331;DHT22;32049;52.346;4.870;2022-12-08T08:56:22;5.00;99.90
46331;DHT22;32049;52.346;4.870;2022-12-08T08:59:10;4.90;99.90
46331;DHT22;32049;52.346;4.870;2022-12-08T09:01:57;5.00;99.90
46331;DHT22;32049;52.346;4.870;2022-12-08T09:04:45;4.40;99.90
46331;DHT22;32049;52.346;4.870;2022-12-08T09:07:35;4.40;99.90
46331;DHT22;32049;52.346;4.870;2022-12-08T09:10:22;4.30;99.90
46331;DHT22;32049;52.346;4.870;2022-12-08T09:13:10;4.20;99.90
46331;DHT22;32049;52.346;4.870;2022-12-08T09:15:59;4.40;99.90
46331;DHT22;32049;52.346;4.870;2022-12-08T09:18:47;4.50;99.90
46331;DHT22;32049;52.346;4.870;2022-12-08T09:21:38;4.50;99.90
46331;DHT22;32049;52.346;4.870;2022-12-08T09:24:26;4.60;99.90
46331;DHT22;32049;52.346;4.870;2022-12-08T09:27:13;4.60;99.90
46331;DHT22;32049;52.346;4.870;2022-12-08T09:30:01;4.60;99.90
46331;DHT22;32049;52.346;4.870;2022-12-08T09:32:49;4.60;99.90
46331;DHT22;32049;52.346;4.870;2022-12-08T09:35:36;4.80;99.90
46331;DHT22;32049;52.346;4.870;2022-12-08T09:38:24;4.70;99.90
46331;DHT22;32049;52.346;4.870;2022-12-08T09:41:16;4.80;99.90
46331;DHT22;32049;52.346;4.870;2022-12-08T09:46:58;4.70;99.90
46331;DHT22;32049;52.346;4.870;2022-12-08T09:49:52;4.70;99.90
46331;DHT22;32049;52.346;4.870;2022-12-08T10:01:36;4.80;99.90
46331;DHT22;32049;52.346;4.870;2022-12-08T10:13:37;4.70;99.90
46331;DHT22;32049;52.346;4.870;2022-12-08T10:19:20;4.80;99.90
46331;DHT22;32049;52.346;4.870;2022-12-08T10:22:11;4.80;99.90
46331;DHT22;32049;52.346;4.870;2022-12-08T10:28:01;5.00;99.90
46331;DHT22;32049;52.346;4.870;2022-12-08T10:30:49;4.90;99.90
46331;DHT22;32049;52.346;4.870;2022-12-08T10:33:36;5.00;99.90
46331;DHT22;32049;52.346;4.870;2022-12-08T10:39:35;4.90;99.90
46331;DHT22;32049;52.346;4.870;2022-12-08T10:48:36;5.00;99.90
46331;DHT22;32049;52.346;4.870;2022-12-08T10:51:30;5.00;99.90
46331;DHT22;32049;52.346;4.870;2022-12-08T10:54:30;5.70;99.90
46331;DHT22;32049;52.346;4.870;2022-12-08T10:57:40;5.70;99.90
46331;DHT22;32049;52.346;4.870;2022-12-08T11:00:41;5.80;99.90
46331;DHT22;32049;52.346;4.870;2022-12-08T11:04:04;5.60;99.90
46331;DHT22;32049;52.346;4.870;2022-12-08T11:06:57;5.90;99.90
46331;DHT22;32049;52.346;4.870;2022-12-08T11:09:46;6.20;99.90
46331;DHT22;32049;52.346;4.870;2022-12-08T11:12:35;6.30;99.90
46331;DHT22;32049;52.346;4.870;2022-12-08T11:15:27;6.20;99.90
46331;DHT22;32049;52.346;4.870;2022-12-08T11:21:16;5.60;99.90
46331;DHT22;32049;52.346;4.870;2022-12-08T11:24:24;5.70;99.90
46331;DHT22;32049;52.346;4.870;2022-12-08T11:27:11;5.70;99.90
46331;DHT22;32049;52.346;4.870;2022-12-08T11:30:01;5.70;99.90
46331;DHT22;32049;52.346;4.870;2022-12-08T11:36:06;5.80;99.90
46331;DHT22;32049;52.346;4.870;2022-12-08T11:38:59;5.80;99.90
46331;DHT22;32049;52.346;4.870;2022-12-08T11:41:49;6.00;99.90
46331;DHT22;32049;52.346;4.870;2022-12-08T11:44:58;6.10;99.90
46331;DHT22;32049;52.346;4.870;2022-12-08T11:51:01;6.30;99.90
46331;DHT22;32049;52.346;4.870;2022-12-08T11:57:03;7.40;99.90
46331;DHT22;32049;52.346;4.870;2022-12-08T11:59:56;9.20;99.90
46331;DHT22;32049;52.346;4.870;2022-12-08T12:02:45;10.00;99.90
46331;DHT22;32049;52.346;4.870;2022-12-08T12:05:53;8.10;99.90
46331;DHT22;32049;52.346;4.870;2022-12-08T12:09:13;8.20;99.90
46331;DHT22;32049;52.346;4.870;2022-12-08T12:12:11;9.90;99.90
46331;DHT22;32049;52.346;4.870;2022-12-08T12:30:24;8.50;99.90
46331;DHT22;32049;52.346;4.870;2022-12-08T12:33:13;7.00;99.90
46331;DHT22;32049;52.346;4.870;2022-12-08T12:36:02;6.20;99.90
46331;DHT22;32049;52.346;4.870;2022-12-08T12:38:53;6.60;99.90
46331;DHT22;32049;52.346;4.870;2022-12-08T12:41:59;7.10;99.90
46331;DHT22;32049;52.346;4.870;2022-12-08T12:44:47;7.00;99.90
46331;DHT22;32049;52.346;4.870;2022-12-08T12:50:49;6.20;99.90
46331;DHT22;32049;52.346;4.870;2022-12-08T12:56:46;6.10;99.90
46331;DHT22;32049;52.346;4.870;2022-12-08T13:02:50;6.10;99.90
46331;DHT22;32049;52.346;4.870;2022-12-08T13:09:26;5.90;99.90
46331;DHT22;32049;52.346;4.870;2022-12-08T13:12:24;5.60;99.90
46331;DHT22;32049;52.346;4.870;2022-12-08T13:15:23;5.70;99.90
46331;DHT22;32049;52.346;4.870;2022-12-08T13:21:14;5.60;99.90
46331;DHT22;32049;52.346;4.870;2022-12-08T13:33:26;5.30;99.90
46331;DHT22;32049;52.346;4.870;2022-12-08T13:40:20;4.90;99.90
46331;DHT22;32049;52.346;4.870;2022-12-08T14:02:19;5.30;99.90
46331;DHT22;32049;52.346;4.870;2022-12-08T14:05:10;5.30;99.90
46331;DHT22;32049;52.346;4.870;2022-12-08T14:08:24;5.20;99.90
46331;DHT22;32049;52.346;4.870;2022-12-08T14:11:35;5.20;99.90
46331;DHT22;32049;52.346;4.870;2022-12-08T14:14:26;5.40;99.90
46331;DHT22;32049;52.346;4.870;2022-12-08T14:17:37;5.20;99.90
46331;DHT22;32049;52.346;4.870;2022-12-08T14:20:33;5.10;99.90
46331;DHT22;32049;52.346;4.870;2022-12-08T14:23:35;5.00;99.90
46331;DHT22;32049;52.346;4.870;2022-12-08T14:26:37;4.90;99.90
46331;DHT22;32049;52.346;4.870;2022-12-08T14:35:27;4.50;99.90
46331;DHT22;32049;52.346;4.870;2022-12-08T14:38:16;4.50;99.90
46331;DHT22;32049;52.346;4.870;2022-12-08T14:41:06;4.40;99.90
46331;DHT22;32049;52.346;4.870;2022-12-08T14:43:58;4.50;99.90
46331;DHT22;32049;52.346;4.870;2022-12-08T14:53:17;4.60;99.90
46331;DHT22;32049;52.346;4.870;2022-12-08T14:56:05;4.20;99.90
46331;DHT22;32049;52.346;4.870;2022-12-08T15:01:50;4.40;99.90
46331;DHT22;32049;52.346;4.870;2022-12-08T15:04:39;4.30;99.90
46331;DHT22;32049;52.346;4.870;2022-12-08T15:07:29;4.50;99.90
46331;DHT22;32049;52.346;4.870;2022-12-08T15:10:18;4.50;99.90
46331;DHT22;32049;52.346;4.870;2022-12-08T15:15:56;4.50;99.90
46331;DHT22;32049;52.346;4.870;2022-12-08T15:18:44;4.40;99.90
46331;DHT22;32049;52.346;4.870;2022-12-08T15:21:38;4.30;99.90
46331;DHT22;32049;52.346;4.870;2022-12-08T15:24:26;4.40;99.90
46331;DHT22;32049;52.346;4.870;2022-12-08T15:27:16;4.40;99.90
46331;DHT22;32049;52.346;4.870;2022-12-08T15:30:04;4.40;99.90
46331;DHT22;32049;52.346;4.870;2022-12-08T15:32:52;4.60;99.90
46331;DHT22;32049;52.346;4.870;2022-12-08T15:35:41;4.40;99.90
46331;DHT22;32049;52.346;4.870;2022-12-08T15:38:29;4.50;99.90
46331;DHT22;32049;52.346;4.870;2022-12-08T15:41:17;4.70;99.90
46331;DHT22;32049;52.346;4.870;2022-12-08T15:44:04;4.60;99.90
46331;DHT22;32049;52.346;4.870;2022-12-08T15:46:51;4.70;99.90
46331;DHT22;32049;52.346;4.870;2022-12-08T15:49:39;4.70;99.90
46331;DHT22;32049;52.346;4.870;2022-12-08T15:52:26;4.80;99.90
46331;DHT22;32049;52.346;4.870;2022-12-08T15:55:14;4.80;99.90
46331;DHT22;32049;52.346;4.870;2022-12-08T15:58:02;4.70;99.90
46331;DHT22;32049;52.346;4.870;2022-12-08T16:01:09;4.80;99.90
46331;DHT22;32049;52.346;4.870;2022-12-08T16:03:56;5.00;99.90
46331;DHT22;32049;52.346;4.870;2022-12-08T16:07:03;5.00;99.90
46331;DHT22;32049;52.346;4.870;2022-12-08T16:13:02;4.70;99.90
46331;DHT22;32049;52.346;4.870;2022-12-08T16:16:28;4.70;99.90
46331;DHT22;32049;52.346;4.870;2022-12-08T16:19:16;4.80;99.90
46331;DHT22;32049;52.346;4.870;2022-12-08T16:22:03;4.80;99.90
46331;DHT22;32049;52.346;4.870;2022-12-08T16:25:11;4.60;99.90
46331;DHT22;32049;52.346;4.870;2022-12-08T16:28:07;4.60;99.90
46331;DHT22;32049;52.346;4.870;2022-12-08T16:31:15;4.60;99.90
46331;DHT22;32049;52.346;4.870;2022-12-08T16:34:08;4.70;99.90
46331;DHT22;32049;52.346;4.870;2022-12-08T16:36:55;4.80;99.90
46331;DHT22;32049;52.346;4.870;2022-12-08T16:39:43;4.60;99.90
46331;DHT22;32049;52.346;4.870;2022-12-08T16:42:32;4.70;99.90
46331;DHT22;32049;52.346;4.870;2022-12-08T16:45:27;4.80;99.90
46331;DHT22;32049;52.346;4.870;2022-12-08T16:48:15;4.60;99.90
46331;DHT22;32049;52.346;4.870;2022-12-08T16:51:03;4.70;99.90
46331;DHT22;32049;52.346;4.870;2022-12-08T16:53:50;4.80;99.90
46331;DHT22;32049;52.346;4.870;2022-12-08T16:56:37;4.70;99.90
46331;DHT22;32049;52.346;4.870;2022-12-08T16:59:25;4.60;99.90
46331;DHT22;32049;52.346;4.870;2022-12-08T17:02:12;4.40;99.90
46331;DHT22;32049;52.346;4.870;2022-12-08T17:05:03;4.60;99.90
46331;DHT22;32049;52.346;4.870;2022-12-08T17:07:51;4.70;99.90
46331;DHT22;32049;52.346;4.870;2022-12-08T17:10:39;4.70;99.90
46331;DHT22;32049;52.346;4.870;2022-12-08T17:13:27;4.50;99.90
46331;DHT22;32049;52.346;4.870;2022-12-08T17:16:15;4.60;99.90
46331;DHT22;32049;52.346;4.870;2022-12-08T17:19:04;4.80;99.90
46331;DHT22;32049;52.346;4.870;2022-12-08T17:21:51;4.80;99.90
46331;DHT22;32049;52.346;4.870;2022-12-08T17:24:38;4.60;99.90
46331;DHT22;32049;52.346;4.870;2022-12-08T17:27:26;4.60;99.90
46331;DHT22;32049;52.346;4.870;2022-12-08T17:30:13;4.50;99.90
46331;DHT22;32049;52.346;4.870;2022-12-08T17:33:02;4.60;99.90
46331;DHT22;32049;52.346;4.870;2022-12-08T17:38:36;4.60;99.90
46331;DHT22;32049;52.346;4.870;2022-12-08T17:41:42;4.50;99.90
46331;DHT22;32049;52.346;4.870;2022-12-08T17:44:45;4.50;99.90
46331;DHT22;32049;52.346;4.870;2022-12-08T17:47:47;4.50;99.90
46331;DHT22;32049;52.346;4.870;2022-12-08T17:50:43;4.50;99.90
46331;DHT22;32049;52.346;4.870;2022-12-08T17:53:38;4.40;99.90
46331;DHT22;32049;52.346;4.870;2022-12-08T17:56:45;4.20;99.90
46331;DHT22;32049;52.346;4.870;2022-12-08T17:59:54;4.10;99.90
46331;DHT22;32049;52.346;4.870;2022-12-08T18:02:58;4.30;99.90
46331;DHT22;32049;52.346;4.870;2022-12-08T18:06:06;4.20;99.90
46331;DHT22;32049;52.346;4.870;2022-12-08T18:09:04;4.10;99.90
46331;DHT22;32049;52.346;4.870;2022-12-08T18:12:05;4.30;99.90
46331;DHT22;32049;52.346;4.870;2022-12-08T18:15:09;4.20;99.90
46331;DHT22;32049;52.346;4.870;2022-12-08T18:18:13;4.10;99.90
46331;DHT22;32049;52.346;4.870;2022-12-08T18:21:15;4.00;99.90
46331;DHT22;32049;52.346;4.870;2022-12-08T18:24:18;4.00;99.90
46331;DHT22;32049;52.346;4.870;2022-12-08T18:27:25;4.10;99.90
46331;DHT22;32049;52.346;4.870;2022-12-08T18:30:27;3.90;99.90
46331;DHT22;32049;52.346;4.870;2022-12-08T18:33:29;3.90;99.90
46331;DHT22;32049;52.346;4.870;2022-12-08T18:36:34;3.80;99.90
46331;DHT22;32049;52.346;4.870;2022-12-08T18:39:35;3.70;99.90
46331;DHT22;32049;52.346;4.870;2022-12-08T18:42:43;3.70;99.90
46331;DHT22;32049;52.346;4.870;2022-12-08T18:45:45;3.60;99.90
46331;DHT22;32049;52.346;4.870;2022-12-08T18:48:45;3.70;99.90
46331;DHT22;32049;52.346;4.870;2022-12-08T18:51:47;3.80;99.90
46331;DHT22;32049;52.346;4.870;2022-12-08T18:54:38;3.60;99.90
46331;DHT22;32049;52.346;4.870;2022-12-08T18:57:47;3.70;99.90
46331;DHT22;32049;52.346;4.870;2022-12-08T19:00:49;3.70;99.90
46331;DHT22;32049;52.346;4.870;2022-12-08T19:03:40;3.70;99.90
46331;DHT22;32049;52.346;4.870;2022-12-08T19:06:51;3.90;99.90
46331;DHT22;32049;52.346;4.870;2022-12-08T19:09:53;3.70;99.90
46331;DHT22;32049;52.346;4.870;2022-12-08T19:12:54;3.70;99.90
46331;DHT22;32049;52.346;4.870;2022-12-08T19:15:43;3.60;99.90
46331;DHT22;32049;52.346;4.870;2022-12-08T19:18:45;3.50;99.90
46331;DHT22;32049;52.346;4.870;2022-12-08T19:21:40;3.40;99.90
46331;DHT22;32049;52.346;4.870;2022-12-08T19:24:41;3.40;99.90
46331;DHT22;32049;52.346;4.870;2022-12-08T19:27:36;3.50;99.90
46331;DHT22;32049;52.346;4.870;2022-12-08T19:30:41;3.60;99.90
46331;DHT22;32049;52.346;4.870;2022-12-08T19:33:46;3.60;99.90
46331;DHT22;32049;52.346;4.870;2022-12-08T19:36:53;3.70;99.90
46331;DHT22;32049;52.346;4.870;2022-12-08T19:39:42;3.80;99.90
46331;DHT22;32049;52.346;4.870;2022-12-08T19:42:49;3.70;99.90
46331;DHT22;32049;52.346;4.870;2022-12-08T19:45:59;3.70;99.90
46331;DHT22;32049;52.346;4.870;2022-12-08T19:48:50;3.60;99.90
46331;DHT22;32049;52.346;4.870;2022-12-08T19:51:40;3.60;99.90
46331;DHT22;32049;52.346;4.870;2022-12-08T19:54:32;3.60;99.90
46331;DHT22;32049;52.346;4.870;2022-12-08T19:57:26;3.50;99.90
46331;DHT22;32049;52.346;4.870;2022-12-08T20:00:22;3.60;99.90
46331;DHT22;32049;52.346;4.870;2022-12-08T20:03:14;3.60;99.90
46331;DHT22;32049;52.346;4.870;2022-12-08T20:06:06;3.60;99.90
46331;DHT22;32049;52.346;4.870;2022-12-08T20:09:00;3.60;99.90
46331;DHT22;32049;52.346;4.870;2022-12-08T20:11:53;3.80;99.90
46331;DHT22;32049;52.346;4.870;2022-12-08T20:15:05;3.70;99.90
46331;DHT22;32049;52.346;4.870;2022-12-08T20:18:05;3.70;99.90
46331;DHT22;32049;52.346;4.870;2022-12-08T20:21:10;3.70;99.90
46331;DHT22;32049;52.346;4.870;2022-12-08T20:24:12;3.60;99.90
46331;DHT22;32049;52.346;4.870;2022-12-08T20:27:02;3.80;99.90
46331;DHT22;32049;52.346;4.870;2022-12-08T20:29:51;3.50;99.90
46331;DHT22;32049;52.346;4.870;2022-12-08T20:32:42;3.50;99.90
46331;DHT22;32049;52.346;4.870;2022-12-08T20:44:14;3.60;99.90
46331;DHT22;32049;52.346;4.870;2022-12-08T20:48:10;3.60;99.90
46331;DHT22;32049;52.346;4.870;2022-12-08T20:55:58;3.80;99.90
46331;DHT22;32049;52.346;4.870;2022-12-08T21:03:48;3.90;99.90
46331;DHT22;32049;52.346;4.870;2022-12-08T21:07:42;4.00;99.90
46331;DHT22;32049;52.346;4.870;2022-12-08T21:11:05;3.80;99.90
46331;DHT22;32049;52.346;4.870;2022-12-08T21:14:13;3.90;99.90
46331;DHT22;32049;52.346;4.870;2022-12-08T21:17:17;4.00;99.90
46331;DHT22;32049;52.346;4.870;2022-12-08T21:20:43;4.00;99.90
46331;DHT22;32049;52.346;4.870;2022-12-08T21:23:47;3.60;99.90
46331;DHT22;32049;52.346;4.870;2022-12-08T21:26:57;3.70;99.90
46331;DHT22;32049;52.346;4.870;2022-12-08T21:30:01;3.80;99.90
46331;DHT22;32049;52.346;4.870;2022-12-08T21:33:07;4.00;99.90
46331;DHT22;32049;52.346;4.870;2022-12-08T21:36:12;3.90;99.90
46331;DHT22;32049;52.346;4.870;2022-12-08T21:39:17;3.80;99.90
46331;DHT22;32049;52.346;4.870;2022-12-08T21:42:40;3.80;99.90
46331;DHT22;32049;52.346;4.870;2022-12-08T21:46:14;3.80;99.90
46331;DHT22;32049;52.346;4.870;2022-12-08T21:49:25;3.90;99.90
46331;DHT22;32049;52.346;4.870;2022-12-08T21:52:28;3.90;99.90
46331;DHT22;32049;52.346;4.870;2022-12-08T21:55:35;3.60;99.90
46331;DHT22;32049;52.346;4.870;2022-12-08T21:58:40;3.60;99.90
46331;DHT22;32049;52.346;4.870;2022-12-08T22:01:42;3.60;99.90
46331;DHT22;32049;52.346;4.870;2022-12-08T22:13:12;3.60;99.90
46331;DHT22;32049;52.346;4.870;2022-12-08T22:16:31;3.60;99.90
46331;DHT22;32049;52.346;4.870;2022-12-08T22:19:55;3.60;99.90
46331;DHT22;32049;52.346;4.870;2022-12-08T22:22:44;3.60;99.90
46331;DHT22;32049;52.346;4.870;2022-12-08T22:25:57;3.70;99.90
46331;DHT22;32049;52.346;4.870;2022-12-08T22:28:45;3.60;99.90
46331;DHT22;32049;52.346;4.870;2022-12-08T22:31:50;3.60;99.90
46331;DHT22;32049;52.346;4.870;2022-12-08T22:34:54;3.60;99.90
46331;DHT22;32049;52.346;4.870;2022-12-08T22:38:12;3.50;99.90
46331;DHT22;32049;52.346;4.870;2022-12-08T22:41:24;3.50;99.90
46331;DHT22;32049;52.346;4.870;2022-12-08T22:44:32;3.70;99.90
46331;DHT22;32049;52.346;4.870;2022-12-08T22:47:48;3.80;99.90
46331;DHT22;32049;52.346;4.870;2022-12-08T22:50:56;4.00;99.90
46331;DHT22;32049;52.346;4.870;2022-12-08T22:54:08;3.80;99.90
46331;DHT22;32049;52.346;4.870;2022-12-08T22:57:16;3.80;99.90
46331;DHT22;32049;52.346;4.870;2022-12-08T23:00:21;3.90;99.90
46331;DHT22;32049;52.346;4.870;2022-12-08T23:03:35;3.90;99.90
46331;DHT22;32049;52.346;4.870;2022-12-08T23:06:46;3.80;99.90
46331;DHT22;32049;52.346;4.870;2022-12-08T23:09:52;3.80;99.90
46331;DHT22;32049;52.346;4.870;2022-12-08T23:12:54;3.90;99.90
46331;DHT22;32049;52.346;4.870;2022-12-08T23:15:50;3.90;99.90
46331;DHT22;32049;52.346;4.870;2022-12-08T23:18:41;3.90;99.90
46331;DHT22;32049;52.346;4.870;2022-12-08T23:22:03;4.00;99.90
46331;DHT22;32049;52.346;4.870;2022-12-08T23:25:08;3.90;99.90
46331;DHT22;32049;52.346;4.870;2022-12-08T23:28:26;3.90;99.90
46331;DHT22;32049;52.346;4.870;2022-12-08T23:31:32;3.80;99.90
46331;DHT22;32049;52.346;4.870;2022-12-08T23:34:43;3.80;99.90
46331;DHT22;32049;52.346;4.870;2022-12-08T23:37:50;3.90;99.90
46331;DHT22;32049;52.346;4.870;2022-12-08T23:41:00;3.90;99.90
46331;DHT22;32049;52.346;4.870;2022-12-08T23:44:02;4.10;99.90
46331;DHT22;32049;52.346;4.870;2022-12-08T23:47:04;4.10;99.90
46331;DHT22;32049;52.346;4.870;2022-12-08T23:50:10;4.00;99.90
46331;DHT22;32049;52.346;4.870;2022-12-08T23:53:16;4.10;99.90
46331;DHT22;32049;52.346;4.870;2022-12-08T23:56:18;4.00;99.90
46331;DHT22;32049;52.346;4.870;2022-12-08T23:59:20;4.10;99.90
